KFXY/FXY METAR and TAF weather

Enter ICAO airport designator
Station Type Date Time Source
KFXY METAR 2019/12/13 16:55 UTC NOAA

KFXY 131655Z AUTO 16006KT 3SM BR BKN005 OVC042 M07/M07 A2988 RMK AO2


Station Type Date Time Source
KFXY Decoded METAR 2019/12/13 16:55 UTC NOAA

Station name not available
Dec 13, 2019 - 11:55 AM EST / 2019.12.13 1655 UTC
Wind: from the SSE (160 degrees) at 7 MPH (6 KT):0
Visibility: 3 mile(s):0
Sky conditions: overcast
Weather: mist
Temperature: 19 F (-7 C)
Windchill: 10 F (-12 C):1
Dew Point: 19 F (-7 C)
Relative Humidity: 100%
Pressure (altimeter): 29.88 in. Hg (1011 hPa)
ob: KFXY 131655Z AUTO 16006KT 3SM BR BKN005 OVC042 M07/M07 A2988 RMK AO2
cycle: 17

Station Type Date Time Source
KFXY TAF UTC NOAA

Error!

Example: see airport list